Aeroporto :
LOGIN :

Iscrizione | Disclaimer

   EN    FR    IT 

 










Sommario :    VFR   VFR Marginale   IFR   IFR Intensivo   IFR Molto Intensivo
Visibilità : 
Base nubi : 
>= 8 km
>= 3000ft
5 / 8 km
1000 / 3000 ft
1500m / 5 km
500 / 1000 ft
800 / 1500m
200 / 500 ft
< 800m
< 200 ft
Simboli :   Temporali  Nebbia  Neve Forte  Precipitazioni Forti  Vento > 20 kt
SIGMETs :   Varie  Temporali  Ghiacco  Turbolenza  Onda orograficha  Ceneri Vulcaniche






- Altitudine del aeroporto : 220 ft
- Codice IATA : CWL


EGFF - Cardiff Rhoose

ULTIMO METAR :
  • 022050Z AUTO 30004KT 9999 NCD 14/12 Q1015

METARs OBSOLETI :
  • 022020Z AUTO 32003KT 9999 NCD 15/12 Q1014
  • 021950Z AUTO 02002KT 9999 NCD 16/12 Q1014
  • 021920Z AUTO 05003KT 9999 NCD 16/12 Q1014
  • 021850Z AUTO VRB02KT 9999 NCD 18/12 Q1014
  • 021820Z AUTO 35004KT 320V030 9999 NCD 17/12 Q1014

TAF TAF EGFF
Valido dal 02 a 18 ore il 03 a 18 ore UTC


021657Z 0218/0318 33008KT 9999 SCT030
TEMPO 0218/0220 7000 SHRA
PROB30 0222/0307 6000
ATIS : +44 1446 729 319



MetMap, La meteo Aeronautica in un colpo d'occhio ! - Copyright ORBIFLY Dicembre 2007 - Disclaimer

ORBIFLY MET'MAP TEAM :

Programmazione e sviluppo : Alexandra Zaïnal
Concezione : Baudouin d'Aumeries
Aiuto per la programmazione : Marc-Olivier Méhu
Supporto tecnico e logistico : Manuel Goepfert
Aiuto per la traduzione : Arnaldo La Scala

Contatto : metmap@orbifly.com




FONTI E CREDITI :

   NOAA